Time;durP1;ratioP1;P1;durP2;ratioP2;P2;SDS_P1;SDS_P2;PMS_P1;PMS_P2;Temp;Humidity;BMP_temperature;BMP_pressure;BME280_temperature;BME280_humidity;BME280_pressure;Samples;Min_cycle;Max_cycle;Signal;HPM_P1;HPM_P2
2023/11/09 00:01:36;;;;;;;0.60;0.60;;;17.20;71.00;;;;;;5057178;28;20036;-75
2023/11/09 00:04:02;;;;;;;0.40;0.40;;;17.20;71.00;;;;;;5060563;28;20459;-76
2023/11/09 00:06:27;;;;;;;0.55;0.55;;;17.20;71.00;;;;;;5074966;28;20064;-76
2023/11/09 00:08:53;;;;;;;0.60;0.50;;;17.20;71.20;;;;;;5044044;28;20064;-75
2023/11/09 00:11:20;;;;;;;0.50;0.50;;;17.20;71.00;;;;;;5060682;28;20099;-76
2023/11/09 00:13:46;;;;;;;0.60;0.60;;;17.20;71.00;;;;;;5060464;28;20048;-76
2023/11/09 00:16:13;;;;;;;0.60;0.40;;;17.20;71.10;;;;;;5071938;28;20041;-76
2023/11/09 00:18:38;;;;;;;0.60;0.60;;;17.20;71.00;;;;;;5075591;28;20067;-76
2023/11/09 00:21:04;;;;;;;0.60;0.60;;;17.20;70.90;;;;;;5057030;28;20083;-76
2023/11/09 00:23:31;;;;;;;0.60;0.50;;;17.20;70.90;;;;;;5059652;28;20048;-75
2023/11/09 00:25:58;;;;;;;1.30;0.52;;;17.20;71.10;;;;;;5056153;28;20438;-76
2023/11/09 00:28:24;;;;;;;0.60;0.40;;;17.20;71.00;;;;;;5060341;28;20057;-76
2023/11/09 00:30:50;;;;;;;0.40;0.40;;;17.20;70.90;;;;;;5091857;28;20531;-75
2023/11/09 00:33:16;;;;;;;0.73;0.43;;;17.20;70.80;;;;;;5059866;28;20570;-76
2023/11/09 00:35:43;;;;;;;0.80;0.70;;;17.20;70.90;;;;;;5055639;28;20032;-76
2023/11/09 00:38:14;;;;;;;0.50;0.50;;;17.20;71.10;;;;;;5057538;28;20040;-75
2023/11/09 00:40:40;;;;;;;0.60;0.60;;;17.20;71.00;;;;;;5071890;28;20039;-76
2023/11/09 00:43:05;;;;;;;0.88;0.60;;;17.20;70.90;;;;;;5060719;28;20032;-76
2023/11/09 00:45:34;;;;;;;0.80;0.73;;;17.20;70.90;;;;;;5091362;28;20110;-76
2023/11/09 00:48:00;;;;;;;0.50;0.50;;;17.20;70.90;;;;;;5040419;28;20510;-76
2023/11/09 00:50:26;;;;;;;0.50;0.50;;;17.20;70.80;;;;;;5060462;28;20080;-75
2023/11/09 00:52:51;;;;;;;0.85;0.47;;;17.20;71.20;;;;;;5059412;28;20532;-75
2023/11/09 00:55:17;;;;;;;0.90;0.90;;;17.20;70.90;;;;;;5059593;28;21409;-76
2023/11/09 00:57:42;;;;;;;0.80;0.73;;;17.20;71.00;;;;;;5059475;28;20056;-76
2023/11/09 01:00:08;;;;;;;0.63;0.63;;;17.20;70.80;;;;;;5056356;28;20049;-76
2023/11/09 01:02:38;;;;;;;0.70;0.45;;;17.20;70.90;;;;;;5055033;28;20409;-76
2023/11/09 01:05:06;;;;;;;0.85;0.85;;;17.20;70.80;;;;;;5040961;28;20056;-76
2023/11/09 01:07:31;;;;;;;0.98;0.70;;;17.20;70.90;;;;;;5057647;28;20059;-76
2023/11/09 01:09:57;;;;;;;0.95;0.93;;;17.20;70.90;;;;;;5060502;28;20064;-76
2023/11/09 01:12:22;;;;;;;0.50;0.50;;;17.20;71.20;;;;;;5093113;28;20075;-76
2023/11/09 01:14:48;;;;;;;0.93;0.80;;;17.20;71.00;;;;;;5058659;28;20059;-75
2023/11/09 01:17:14;;;;;;;0.65;0.65;;;17.20;70.80;;;;;;5061579;28;20111;-76
2023/11/09 01:19:39;;;;;;;0.47;0.47;;;17.20;70.70;;;;;;5063887;28;20044;-76
2023/11/09 01:22:05;;;;;;;0.57;0.50;;;17.10;70.70;;;;;;5062985;28;20079;-76
2023/11/09 01:24:31;;;;;;;1.00;0.82;;;17.20;70.90;;;;;;5063191;28;20044;-75
2023/11/09 01:26:56;;;;;;;0.68;0.68;;;17.20;70.80;;;;;;5094661;28;20067;-76
2023/11/09 01:29:22;;;;;;;0.70;0.60;;;17.10;70.70;;;;;;5061290;28;20122;-76
2023/11/09 01:31:49;;;;;;;0.45;0.45;;;17.10;70.80;;;;;;5060360;28;20040;-76
2023/11/09 01:34:14;;;;;;;0.73;0.70;;;17.10;70.80;;;;;;5060494;28;20514;-76
2023/11/09 01:36:40;;;;;;;0.95;0.70;;;17.10;70.80;;;;;;5093946;28;20598;-76
2023/11/09 01:39:06;;;;;;;0.60;0.60;;;17.10;70.70;;;;;;5044352;28;20059;-76
2023/11/09 01:41:31;;;;;;;0.80;0.80;;;17.10;70.70;;;;;;5057521;28;20055;-76
2023/11/09 01:43:57;;;;;;;0.73;0.60;;;17.10;70.70;;;;;;5060331;28;20742;-76
2023/11/09 01:46:24;;;;;;;0.90;0.60;;;17.10;70.70;;;;;;5062740;28;20044;-75
2023/11/09 01:48:51;;;;;;;0.88;0.75;;;17.20;71.60;;;;;;5045435;28;20044;-76
2023/11/09 01:51:16;;;;;;;0.50;0.40;;;17.20;70.70;;;;;;5076646;28;20131;-76
2023/11/09 01:53:42;;;;;;;0.68;0.60;;;17.10;70.60;;;;;;5061248;28;20409;-76
2023/11/09 01:56:10;;;;;;;0.68;0.43;;;17.10;70.80;;;;;;5045132;28;20032;-75
2023/11/09 01:58:36;;;;;;;0.52;0.52;;;17.10;70.60;;;;;;5048213;28;20044;-76
2023/11/09 02:01:02;;;;;;;0.60;0.60;;;17.20;70.80;;;;;;5047505;28;20032;-76
2023/11/09 02:03:28;;;;;;;0.90;0.80;;;17.20;70.80;;;;;;5063361;28;20029;-76
2023/11/09 02:05:55;;;;;;;1.25;0.70;;;17.10;70.70;;;;;;5064120;28;20494;-76
2023/11/09 02:08:20;;;;;;;0.70;0.70;;;17.10;70.70;;;;;;5044809;28;20552;-76
2023/11/09 02:10:46;;;;;;;1.40;0.90;;;17.10;70.70;;;;;;5076319;28;20033;-76
2023/11/09 02:13:12;;;;;;;0.80;0.70;;;17.10;70.80;;;;;;5066199;28;20589;-76
2023/11/09 02:15:37;;;;;;;0.75;0.70;;;17.10;70.70;;;;;;5064671;28;20701;-76
2023/11/09 02:18:03;;;;;;;0.73;0.70;;;17.10;70.70;;;;;;5061938;28;20094;-76
2023/11/09 02:20:28;;;;;;;0.55;0.55;;;17.10;70.70;;;;;;5063861;28;20106;-76
2023/11/09 02:22:54;;;;;;;0.77;0.57;;;17.10;70.60;;;;;;5047026;28;20356;-77
2023/11/09 02:25:20;;;;;;;0.60;0.60;;;17.10;70.60;;;;;;5045462;28;20040;-77
2023/11/09 02:27:45;;;;;;;0.73;0.55;;;17.10;70.70;;;;;;5049375;28;20051;-76
2023/11/09 02:30:11;;;;;;;0.50;0.50;;;17.10;70.70;;;;;;5048374;28;20036;-77
2023/11/09 02:32:37;;;;;;;1.50;0.70;;;17.10;70.60;;;;;;5098912;28;20041;-77
2023/11/09 02:35:03;;;;;;;0.80;0.68;;;17.10;70.60;;;;;;5065926;28;20048;-76
2023/11/09 02:37:29;;;;;;;1.75;0.60;;;17.10;70.70;;;;;;5046066;28;20053;-76
2023/11/09 02:39:56;;;;;;;1.13;0.85;;;17.10;70.50;;;;;;5049975;28;20081;-76
2023/11/09 02:42:22;;;;;;;0.60;0.50;;;17.10;70.50;;;;;;5063784;28;20041;-76
2023/11/09 02:44:48;;;;;;;0.93;0.55;;;17.10;70.60;;;;;;5047679;28;20040;-76
2023/11/09 02:47:13;;;;;;;0.50;0.50;;;17.10;70.50;;;;;;5063118;28;20048;-77
2023/11/09 02:49:39;;;;;;;0.57;0.50;;;17.10;70.50;;;;;;5061236;28;20124;-77
2023/11/09 02:52:07;;;;;;;0.65;0.57;;;17.10;70.60;;;;;;5064745;28;20036;-76
2023/11/09 02:54:33;;;;;;;0.90;0.75;;;17.00;70.50;;;;;;5077792;28;20048;-77
2023/11/09 02:56:58;;;;;;;0.70;0.70;;;17.10;70.50;;;;;;5064366;28;20039;-76
2023/11/09 02:59:24;;;;;;;0.80;0.70;;;17.10;70.50;;;;;;5063357;28;22970;-77
2023/11/09 03:01:50;;;;;;;0.70;0.50;;;17.10;70.50;;;;;;5061543;28;21070;-76
2023/11/09 03:04:15;;;;;;;0.98;0.68;;;17.00;70.40;;;;;;5045854;28;20048;-77
2023/11/09 03:06:41;;;;;;;0.50;0.50;;;17.10;70.40;;;;;;5063305;28;20448;-76
2023/11/09 03:09:07;;;;;;;0.85;0.70;;;17.00;70.40;;;;;;5062043;28;20048;-76
2023/11/09 03:11:33;;;;;;;0.70;0.70;;;17.00;70.30;;;;;;5062579;28;20048;-76
2023/11/09 03:14:00;;;;;;;1.45;1.08;;;17.00;70.40;;;;;;5060907;28;20028;-76
2023/11/09 03:16:26;;;;;;;1.05;0.63;;;17.00;70.50;;;;;;5062312;28;20048;-76
2023/11/09 03:18:51;;;;;;;0.65;0.65;;;17.00;70.30;;;;;;5064701;28;20044;-76
2023/11/09 03:21:17;;;;;;;1.10;0.95;;;17.00;70.30;;;;;;5046440;28;20036;-77
2023/11/09 03:23:43;;;;;;;1.02;0.80;;;17.00;70.40;;;;;;5064066;28;20044;-76
2023/11/09 03:26:09;;;;;;;1.38;0.73;;;17.00;70.30;;;;;;5064361;28;20067;-76
2023/11/09 03:28:37;;;;;;;0.60;0.60;;;17.00;70.30;;;;;;5063229;28;20120;-76
2023/11/09 03:31:04;;;;;;;3.22;0.80;;;17.00;70.30;;;;;;5064427;28;20089;-76
2023/11/09 03:33:30;;;;;;;0.90;0.85;;;17.00;70.30;;;;;;5091825;28;20372;-76
2023/11/09 03:35:55;;;;;;;0.73;0.70;;;17.00;70.30;;;;;;5066300;28;20031;-76
2023/11/09 03:38:21;;;;;;;0.73;0.43;;;17.00;70.40;;;;;;5062606;28;20033;-76
2023/11/09 03:40:46;;;;;;;1.63;0.60;;;17.00;70.40;;;;;;5063997;28;20044;-76
2023/11/09 03:43:12;;;;;;;0.93;0.60;;;17.00;70.30;;;;;;5047627;28;20043;-76
2023/11/09 03:45:38;;;;;;;1.48;0.70;;;17.00;70.30;;;;;;5047483;28;20053;-76
2023/11/09 03:48:03;;;;;;;0.57;0.57;;;17.00;70.30;;;;;;5060329;28;20395;-76
2023/11/09 03:50:29;;;;;;;0.90;0.50;;;17.00;70.30;;;;;;5062207;28;20375;-76
2023/11/09 03:52:55;;;;;;;0.40;0.40;;;17.00;70.30;;;;;;5063216;28;20115;-76
2023/11/09 03:55:20;;;;;;;0.82;0.60;;;17.00;70.30;;;;;;5094307;28;20037;-76
2023/11/09 03:57:46;;;;;;;1.40;0.82;;;17.00;70.20;;;;;;5065387;28;20047;-76
2023/11/09 04:00:12;;;;;;;0.68;0.57;;;17.00;70.50;;;;;;5062655;28;20051;-76
2023/11/09 04:02:39;;;;;;;0.70;0.50;;;17.00;70.20;;;;;;5060336;28;20087;-76
2023/11/09 04:05:05;;;;;;;1.48;0.60;;;16.90;70.30;;;;;;5046002;28;20412;-76
2023/11/09 04:07:30;;;;;;;0.73;0.70;;;17.00;70.40;;;;;;5061940;28;20044;-76
2023/11/09 04:09:56;;;;;;;1.27;0.80;;;17.00;70.30;;;;;;5064646;28;20044;-76
2023/11/09 04:12:22;;;;;;;0.60;0.60;;;16.90;70.30;;;;;;5064810;28;20701;-76
2023/11/09 04:14:47;;;;;;;0.95;0.70;;;16.90;70.20;;;;;;5029987;28;20077;-76
2023/11/09 04:17:13;;;;;;;2.15;0.75;;;16.90;70.10;;;;;;5062335;28;20029;-76
2023/11/09 04:19:40;;;;;;;1.80;0.60;;;16.90;70.10;;;;;;5046481;28;20067;-76
2023/11/09 04:22:05;;;;;;;0.75;0.45;;;16.90;70.20;;;;;;5076149;28;20133;-76
2023/11/09 04:24:31;;;;;;;1.13;0.73;;;16.90;70.10;;;;;;5063534;28;20791;-76
2023/11/09 04:26:57;;;;;;;1.30;0.80;;;16.90;70.80;;;;;;5060397;28;20037;-76
2023/11/09 04:29:23;;;;;;;0.85;0.85;;;17.00;70.10;;;;;;5059365;28;20071;-76
2023/11/09 04:31:49;;;;;;;1.27;0.70;;;17.00;70.10;;;;;;5063091;28;20114;-76
2023/11/09 04:34:15;;;;;;;0.80;0.60;;;17.00;70.10;;;;;;5096630;28;20048;-76
2023/11/09 04:36:42;;;;;;;2.25;0.75;;;16.90;70.10;;;;;;5096442;28;20399;-76
2023/11/09 04:39:08;;;;;;;1.60;0.90;;;17.00;70.20;;;;;;5045841;28;20060;-76
2023/11/09 04:41:35;;;;;;;0.95;0.90;;;16.90;70.00;;;;;;5044584;28;20061;-76
2023/11/09 04:44:01;;;;;;;0.90;0.70;;;16.90;70.00;;;;;;5060859;28;20041;-76
2023/11/09 04:46:28;;;;;;;0.80;0.80;;;17.00;70.20;;;;;;5062402;28;20040;-76
2023/11/09 04:48:55;;;;;;;2.47;0.82;;;16.90;70.10;;;;;;5090304;28;20037;-76
2023/11/09 04:51:22;;;;;;;0.65;0.60;;;16.90;70.00;;;;;;5092068;28;20055;-76
2023/11/09 04:53:51;;;;;;;0.77;0.70;;;16.90;70.10;;;;;;5065811;28;20040;-76
2023/11/09 04:56:38;;;;;;;0.70;0.68;;;16.90;70.10;;;;;;5048077;28;20067;-76
2023/11/09 05:06:48;;;;;;;0.47;0.45;;;16.90;70.10;;;;;;5059254;28;20033;-76
2023/11/09 05:07:18;;;;;;;1.67;0.73;;;16.90;70.20;;;;;;5091466;28;20043;-76
2023/11/09 05:09:46;;;;;;;1.98;0.80;;;16.90;70.20;;;;;;5092884;28;20044;-76
2023/11/09 05:12:13;;;;;;;0.98;0.77;;;16.90;70.10;;;;;;5099566;28;20488;-76
2023/11/09 05:14:39;;;;;;;0.60;0.60;;;16.90;70.10;;;;;;5062812;28;20064;-73
2023/11/09 05:17:05;;;;;;;1.70;0.57;;;16.90;70.10;;;;;;5065203;28;20052;-73
2023/11/09 05:19:30;;;;;;;1.20;0.68;;;16.90;70.10;;;;;;5065796;28;20434;-73
2023/11/09 05:21:56;;;;;;;0.85;0.63;;;16.90;70.20;;;;;;5063325;28;20076;-73
2023/11/09 05:24:21;;;;;;;1.27;0.70;;;16.90;70.10;;;;;;5066865;28;20045;-75
2023/11/09 05:26:50;;;;;;;0.65;0.60;;;16.90;70.20;;;;;;5066855;28;20516;-74
2023/11/09 05:29:16;;;;;;;0.95;0.77;;;16.90;70.20;;;;;;5062491;28;20040;-74
2023/11/09 05:31:44;;;;;;;1.70;0.90;;;16.90;70.20;;;;;;5064074;28;20091;-73
2023/11/09 05:34:10;;;;;;;0.80;0.43;;;16.90;70.20;;;;;;5067609;28;20115;-73
2023/11/09 05:36:36;;;;;;;0.75;0.60;;;16.90;70.20;;;;;;5066810;28;20474;-74
2023/11/09 05:39:04;;;;;;;0.90;0.73;;;16.80;70.20;;;;;;5066619;28;20182;-73
2023/11/09 05:41:30;;;;;;;0.77;0.70;;;16.90;70.20;;;;;;5063757;28;20036;-74
2023/11/09 05:43:56;;;;;;;1.10;0.80;;;16.90;70.10;;;;;;5065483;28;20601;-73
2023/11/09 05:46:22;;;;;;;0.70;0.70;;;16.90;70.20;;;;;;5063203;28;20410;-73
2023/11/09 05:48:48;;;;;;;0.80;0.70;;;16.90;70.20;;;;;;5065823;28;20083;-73
2023/11/09 05:51:20;;;;;;;1.25;0.50;;;16.90;70.20;;;;;;5063189;28;20052;-73
2023/11/09 05:53:49;;;;;;;1.10;1.00;;;16.80;70.10;;;;;;5066364;28;20106;-73
2023/11/09 05:56:18;;;;;;;1.38;0.70;;;16.90;70.30;;;;;;5064011;28;20044;-74
2023/11/09 05:58:44;;;;;;;1.90;0.98;;;16.80;70.10;;;;;;5062282;28;20513;-74
2023/11/09 06:01:11;;;;;;;0.90;0.70;;;16.90;70.20;;;;;;5064222;28;20037;-74
2023/11/09 06:03:37;;;;;;;1.05;0.70;;;16.90;70.20;;;;;;5065682;28;20047;-74
2023/11/09 06:06:06;;;;;;;1.02;0.63;;;16.90;70.20;;;;;;5063419;28;20143;-74
2023/11/09 06:08:34;;;;;;;0.82;0.80;;;16.90;70.30;;;;;;5062784;28;20452;-85
2023/11/09 06:11:00;;;;;;;1.63;0.60;;;16.80;70.10;;;;;;5075582;28;20568;-86
2023/11/09 06:13:26;;;;;;;0.73;0.70;;;16.80;70.10;;;;;;5070904;28;20080;-86
2023/11/09 06:15:52;;;;;;;1.23;0.90;;;16.80;70.10;;;;;;5069685;28;20056;-86
2023/11/09 06:18:17;;;;;;;0.70;0.60;;;16.80;70.10;;;;;;5061942;28;20153;-86
2023/11/09 06:20:44;;;;;;;0.90;0.60;;;16.80;70.10;;;;;;5032478;28;20051;-86
2023/11/09 06:23:09;;;;;;;1.52;0.82;;;16.80;70.20;;;;;;5060714;28;20072;-85
2023/11/09 06:25:35;;;;;;;1.27;0.60;;;16.80;70.20;;;;;;5064546;28;20410;-86
2023/11/09 06:28:02;;;;;;;1.40;0.63;;;16.80;71.00;;;;;;5064923;28;20036;-86
2023/11/09 06:30:27;;;;;;;0.85;0.60;;;16.80;70.20;;;;;;5060362;28;20104;-86
2023/11/09 06:32:53;;;;;;;1.00;0.80;;;16.80;70.10;;;;;;5061772;28;20032;-87
2023/11/09 06:35:19;;;;;;;1.17;0.77;;;16.90;70.20;;;;;;5061892;28;20044;-85
2023/11/09 06:37:45;;;;;;;2.13;0.60;;;16.80;70.10;;;;;;5061204;28;20078;-85
2023/11/09 06:40:16;;;;;;;1.73;0.75;;;16.80;70.20;;;;;;5062028;28;20119;-85
2023/11/09 06:42:42;;;;;;;0.77;0.77;;;16.80;70.10;;;;;;5064825;28;20047;-86
2023/11/09 06:45:09;;;;;;;1.52;1.00;;;16.80;70.30;;;;;;5078212;28;20048;-86
2023/11/09 06:47:40;;;;;;;0.60;0.57;;;16.80;70.20;;;;;;5048196;28;20052;-85
2023/11/09 06:50:11;;;;;;;1.15;0.80;;;16.80;70.20;;;;;;5063731;28;20048;-85
2023/11/09 06:52:41;;;;;;;1.00;0.70;;;16.80;70.20;;;;;;5093612;28;20044;-85
2023/11/09 06:55:10;;;;;;;0.77;0.70;;;16.80;70.30;;;;;;5049576;28;20044;-85
2023/11/09 06:57:36;;;;;;;0.70;0.65;;;16.80;70.20;;;;;;5062216;28;20055;-85
2023/11/09 07:00:05;;;;;;;0.70;0.70;;;16.80;70.30;;;;;;5074391;28;20094;-85
2023/11/09 07:02:32;;;;;;;2.50;0.80;;;16.80;70.30;;;;;;5059755;28;20052;-85
2023/11/09 07:04:57;;;;;;;1.02;0.80;;;16.80;70.20;;;;;;5064936;28;20143;-85
2023/11/09 07:07:23;;;;;;;0.80;0.75;;;16.80;70.30;;;;;;5064954;28;20135;-85
2023/11/09 07:09:48;;;;;;;1.00;0.68;;;16.80;70.30;;;;;;5065459;28;20154;-81
2023/11/09 07:12:14;;;;;;;1.05;0.70;;;16.80;70.30;;;;;;5061418;28;20052;-88
2023/11/09 07:14:40;;;;;;;3.03;0.73;;;16.80;70.40;;;;;;5042492;28;20560;-83
2023/11/09 07:17:06;;;;;;;1.25;0.82;;;16.80;70.50;;;;;;5056645;28;20093;-82
2023/11/09 07:19:33;;;;;;;3.42;1.17;;;16.80;70.80;;;;;;5044076;28;20049;-83
2023/11/09 07:22:00;;;;;;;0.53;0.50;;;16.90;71.40;;;;;;4698201;28;9999926;-84
2023/11/09 07:24:29;;;;;;;0.93;0.88;;;16.90;70.80;;;;;;5023605;28;20506;-83
2023/11/09 07:26:55;;;;;;;1.77;1.00;;;16.90;70.70;;;;;;5040079;28;20059;-84
2023/11/09 07:29:21;;;;;;;2.72;1.00;;;16.90;70.80;;;;;;5043275;28;20052;-83
2023/11/09 07:31:46;;;;;;;0.93;0.80;;;16.90;70.90;;;;;;5037790;28;20460;-84
2023/11/09 07:34:12;;;;;;;1.63;1.00;;;16.90;71.50;;;;;;5031450;28;20049;-83
2023/11/09 07:36:37;;;;;;;1.05;0.63;;;16.90;70.80;;;;;;5041351;28;20052;-83
2023/11/09 07:39:07;;;;;;;1.17;0.88;;;16.80;70.90;;;;;;5037294;28;20044;-83
2023/11/09 07:41:32;;;;;;;0.88;0.77;;;16.90;70.80;;;;;;5039286;28;20051;-85
2023/11/09 07:43:58;;;;;;;0.73;0.70;;;16.80;70.70;;;;;;5046688;28;20072;-85
2023/11/09 07:46:24;;;;;;;8.98;0.70;;;16.90;70.90;;;;;;5058980;28;20044;-85
2023/11/09 07:48:49;;;;;;;1.13;0.70;;;16.80;70.90;;;;;;5060639;28;20522;-86
2023/11/09 07:51:15;;;;;;;0.90;0.65;;;16.80;71.30;;;;;;5088931;28;20090;-85
2023/11/09 07:53:40;;;;;;;2.13;0.90;;;16.90;70.90;;;;;;5058018;28;20048;-84
2023/11/09 07:56:06;;;;;;;1.50;0.60;;;16.80;70.70;;;;;;5056722;28;20045;-83
2023/11/09 07:58:32;;;;;;;0.70;0.60;;;16.90;70.90;;;;;;5058285;28;20048;-83
2023/11/09 08:00:58;;;;;;;2.13;0.60;;;16.80;70.90;;;;;;5061109;28;20052;-84
2023/11/09 08:03:24;;;;;;;0.95;0.57;;;16.90;71.00;;;;;;5056536;28;20048;-82
2023/11/09 08:05:49;;;;;;;1.08;0.80;;;16.80;70.90;;;;;;5057454;28;20557;-82
2023/11/09 08:08:16;;;;;;;1.42;0.75;;;16.90;70.70;;;;;;5058796;28;20048;-82
2023/11/09 08:10:42;;;;;;;1.02;0.73;;;16.90;70.70;;;;;;5057886;28;20583;-81
2023/11/09 08:13:11;;;;;;;0.77;0.43;;;16.90;70.60;;;;;;5062330;28;20577;-84
2023/11/09 08:15:37;;;;;;;0.73;0.60;;;16.90;70.90;;;;;;5056366;28;20479;-84
2023/11/09 08:18:03;;;;;;;1.85;0.75;;;16.90;70.50;;;;;;5057916;28;20044;-84
2023/11/09 08:20:29;;;;;;;1.65;0.90;;;16.90;70.60;;;;;;5057763;28;20063;-85
2023/11/09 08:22:56;;;;;;;0.80;0.55;;;16.90;70.50;;;;;;5055920;28;20115;-90
2023/11/09 08:25:23;;;;;;;3.22;0.70;;;16.90;70.60;;;;;;5059166;28;20052;-89
2023/11/09 08:27:48;;;;;;;3.58;1.02;;;16.90;70.70;;;;;;5094147;28;20044;-89
2023/11/09 08:30:15;;;;;;;0.80;0.80;;;16.90;71.70;;;;;;5044785;28;20051;-89
2023/11/09 08:32:45;;;;;;;1.25;0.70;;;16.90;70.90;;;;;;5058080;28;20055;-90
2023/11/09 08:35:11;;;;;;;1.90;0.70;;;16.90;71.20;;;;;;5059593;28;20059;-90
2023/11/09 08:37:43;;;;;;;0.68;0.68;;;16.90;70.60;;;;;;5059541;28;20036;-90
2023/11/09 08:40:16;;;;;;;0.75;0.43;;;16.90;70.70;;;;;;5062280;28;20048;-91
2023/11/09 08:42:49;;;;;;;0.82;0.57;;;16.90;70.70;;;;;;5061980;28;20047;-90
2023/11/09 08:45:17;;;;;;;0.82;0.57;;;16.90;70.50;;;;;;5057992;28;20067;-85
2023/11/09 08:47:46;;;;;;;1.50;0.82;;;16.90;70.60;;;;;;5057703;28;20044;-85
2023/11/09 08:50:13;;;;;;;0.80;0.63;;;16.90;70.60;;;;;;5058191;28;20086;-87
2023/11/09 08:52:42;;;;;;;0.68;0.45;;;16.90;70.50;;;;;;5058840;28;20086;-88
2023/11/09 08:55:08;;;;;;;0.75;0.50;;;16.90;70.50;;;;;;5060460;28;20075;-88
2023/11/09 08:57:37;;;;;;;0.93;0.63;;;16.90;70.50;;;;;;5057017;28;20048;-76
2023/11/09 09:00:06;;;;;;;2.95;0.60;;;16.90;70.90;;;;;;5055920;28;20454;-87
2023/11/09 09:02:32;;;;;;;0.88;0.50;;;17.00;70.80;;;;;;5059479;28;20048;-85
2023/11/09 09:05:00;;;;;;;0.63;0.63;;;17.00;71.70;;;;;;5038678;28;20052;-83
2023/11/09 09:07:26;;;;;;;0.98;0.65;;;17.00;70.80;;;;;;5057634;28;20049;-86
2023/11/09 09:09:53;;;;;;;0.93;0.60;;;16.90;70.60;;;;;;5057540;28;20055;-86
2023/11/09 09:12:20;;;;;;;1.90;0.80;;;16.90;70.60;;;;;;5057378;28;20071;-87
2023/11/09 09:14:47;;;;;;;1.58;0.82;;;17.00;70.70;;;;;;5060486;28;20241;-88
2023/11/09 09:17:15;;;;;;;1.02;0.40;;;16.90;70.60;;;;;;5056937;28;20243;-87
2023/11/09 09:19:41;;;;;;;0.65;0.50;;;16.90;70.60;;;;;;5057387;28;20107;-87
2023/11/09 09:22:07;;;;;;;1.83;0.40;;;16.90;70.60;;;;;;5058372;28;20520;-87
2023/11/09 09:24:33;;;;;;;0.73;0.70;;;17.00;70.70;;;;;;5059975;28;20053;-85
2023/11/09 09:26:58;;;;;;;1.05;0.60;;;17.00;70.70;;;;;;5055621;28;20041;-85
2023/11/09 09:29:27;;;;;;;2.55;0.30;;;16.90;70.70;;;;;;5057206;28;20098;-85
2023/11/09 09:31:53;;;;;;;0.73;0.50;;;17.00;70.60;;;;;;5055834;28;20060;-85
2023/11/09 09:34:23;;;;;;;0.93;0.57;;;17.00;70.80;;;;;;5058872;28;20060;-86
2023/11/09 09:36:49;;;;;;;0.93;0.60;;;17.00;70.50;;;;;;5063283;28;20052;-87
2023/11/09 09:39:15;;;;;;;1.85;0.70;;;17.00;70.50;;;;;;5059136;28;20040;-87
2023/11/09 09:41:42;;;;;;;0.55;0.43;;;17.00;70.60;;;;;;5062632;28;20037;-81
2023/11/09 09:44:14;;;;;;;1.13;0.52;;;17.00;71.00;;;;;;5060653;28;20052;-83
2023/11/09 09:46:40;;;;;;;4.20;0.60;;;17.00;71.20;;;;;;5092629;28;20069;-83
2023/11/09 09:49:08;;;;;;;0.43;0.40;;;17.00;71.00;;;;;;5045768;28;20451;-84
2023/11/09 09:51:35;;;;;;;0.50;0.50;;;17.00;71.00;;;;;;5063101;28;20052;-86
2023/11/09 09:54:02;;;;;;;0.30;0.30;;;17.00;70.90;;;;;;5060481;28;20466;-81
2023/11/09 09:56:27;;;;;;;1.05;0.40;;;17.10;71.20;;;;;;5062942;28;21723;-84
2023/11/09 09:58:53;;;;;;;1.23;0.40;;;17.00;71.20;;;;;;5073974;28;20051;-81
2023/11/09 10:01:19;;;;;;;3.10;0.65;;;17.00;70.90;;;;;;5061983;28;20139;-83
2023/11/09 10:03:44;;;;;;;1.25;0.50;;;17.00;71.00;;;;;;5097117;28;20074;-85
2023/11/09 10:06:13;;;;;;;0.63;0.50;;;17.00;70.70;;;;;;5059056;28;20056;-84
2023/11/09 10:08:39;;;;;;;2.95;0.70;;;17.10;70.60;;;;;;5059719;28;20032;-79
2023/11/09 10:11:04;;;;;;;0.80;0.50;;;17.10;70.50;;;;;;5063140;28;20332;-86
2023/11/09 10:13:33;;;;;;;1.05;0.50;;;17.10;70.60;;;;;;5060429;28;20139;-87
2023/11/09 10:15:59;;;;;;;0.50;0.40;;;17.10;70.90;;;;;;5060578;28;20136;-88
2023/11/09 10:18:29;;;;;;;2.15;0.47;;;17.00;70.50;;;;;;5060623;28;20033;-87
2023/11/09 10:20:56;;;;;;;1.00;0.70;;;17.10;70.80;;;;;;5058809;28;20119;-86
2023/11/09 10:23:22;;;;;;;1.02;0.45;;;17.10;70.90;;;;;;5060816;28;20080;-86
2023/11/09 10:25:47;;;;;;;0.63;0.40;;;17.10;70.90;;;;;;5060402;28;20135;-85
2023/11/09 10:28:13;;;;;;;0.50;0.45;;;17.10;70.70;;;;;;5091822;28;20045;-86
2023/11/09 10:30:44;;;;;;;1.60;0.70;;;17.10;70.70;;;;;;5060694;28;20068;-86
2023/11/09 10:33:14;;;;;;;1.13;0.50;;;17.00;70.50;;;;;;5061099;28;20059;-81
2023/11/09 10:35:40;;;;;;;1.10;0.80;;;17.00;70.50;;;;;;5059735;28;20442;-85
2023/11/09 10:38:08;;;;;;;0.57;0.50;;;17.00;71.00;;;;;;5059357;28;20040;-84
2023/11/09 10:40:35;;;;;;;0.50;0.50;;;17.00;71.10;;;;;;5056409;28;20045;-83
2023/11/09 10:43:00;;;;;;;0.68;0.60;;;17.00;71.00;;;;;;5060220;28;20047;-84
2023/11/09 10:45:38;;;;;;;0.55;0.32;;;17.00;70.60;;;;;;5057099;28;20048;-85
2023/11/09 10:48:08;;;;;;;0.43;0.40;;;17.10;70.80;;;;;;5057598;28;20498;-82
2023/11/09 10:50:46;;;;;;;0.93;0.60;;;17.10;70.90;;;;;;5059037;28;20119;-82
2023/11/09 10:53:21;;;;;;;0.57;0.32;;;17.10;70.80;;;;;;5058960;28;20076;-82
2023/11/09 10:55:59;;;;;;;0.60;0.50;;;17.10;71.70;;;;;;5089423;28;20036;-79
2023/11/09 10:58:25;;;;;;;0.77;0.45;;;17.00;70.90;;;;;;5057502;28;20045;-84
2023/11/09 11:00:51;;;;;;;0.57;0.40;;;17.00;71.00;;;;;;5061956;28;20414;-82
2023/11/09 11:03:32;;;;;;;0.40;0.40;;;17.00;70.60;;;;;;5057720;28;20052;-85
2023/11/09 11:06:00;;;;;;;1.73;0.40;;;17.00;70.70;;;;;;5089464;28;20128;-85
2023/11/09 11:08:29;;;;;;;1.85;0.38;;;17.00;70.90;;;;;;5059531;28;20048;-84
2023/11/09 11:10:56;;;;;;;1.35;0.50;;;17.00;70.70;;;;;;5055590;28;20060;-84
2023/11/09 11:13:23;;;;;;;0.52;0.40;;;17.10;70.70;;;;;;5060834;28;20049;-84
2023/11/09 11:16:10;;;;;;;0.45;0.30;;;17.10;70.60;;;;;;5058641;28;20032;-81
2023/11/09 11:19:12;;;;;;;0.65;0.50;;;17.10;70.40;;;;;;5060039;28;20043;-83
2023/11/09 11:21:45;;;;;;;1.85;0.40;;;17.10;70.50;;;;;;5059496;28;20048;-84
2023/11/09 11:24:35;;;;;;;0.52;0.35;;;17.10;71.00;;;;;;5056405;28;20290;-82
2023/11/09 11:27:04;;;;;;;0.45;0.30;;;17.10;70.80;;;;;;5057955;28;20044;-81
2023/11/09 11:29:30;;;;;;;0.60;0.43;;;17.10;70.80;;;;;;5056506;28;20041;-81
2023/11/09 11:31:57;;;;;;;1.95;0.70;;;17.10;70.80;;;;;;5058018;28;20095;-83
2023/11/09 11:34:45;;;;;;;0.52;0.38;;;17.10;70.50;;;;;;5058278;28;20114;-85
2023/11/09 11:37:11;;;;;;;1.00;0.30;;;17.10;70.80;;;;;;5076339;28;20052;-87
2023/11/09 11:39:37;;;;;;;1.52;0.47;;;17.10;70.40;;;;;;5058640;28;20091;-86
2023/11/09 11:42:16;;;;;;;1.90;0.43;;;17.10;70.90;;;;;;5061453;28;20076;-87
2023/11/09 11:44:48;;;;;;;0.43;0.30;;;17.10;70.80;;;;;;5083370;28;20526;-87
2023/11/09 11:47:14;;;;;;;1.42;0.40;;;17.10;70.80;;;;;;5057734;28;20048;-88
2023/11/09 11:49:40;;;;;;;0.60;0.38;;;17.10;70.70;;;;;;5059279;28;20522;-87
2023/11/09 11:52:09;;;;;;;0.40;0.32;;;17.10;70.60;;;;;;5059023;28;20040;-85
2023/11/09 11:54:35;;;;;;;0.80;0.55;;;17.10;70.70;;;;;;5060246;28;20502;-82
2023/11/09 11:57:01;;;;;;;0.63;0.50;;;17.10;70.70;;;;;;5058648;28;20041;-82
2023/11/09 11:59:28;;;;;;;0.32;0.32;;;17.10;70.70;;;;;;5056590;28;20045;-84
2023/11/09 12:01:55;;;;;;;0.50;0.35;;;17.10;70.80;;;;;;5055087;28;20033;-84
2023/11/09 12:04:20;;;;;;;1.15;0.40;;;17.00;70.90;;;;;;5058651;28;20056;-82
2023/11/09 12:06:47;;;;;;;0.30;0.30;;;17.10;70.80;;;;;;5060364;28;20047;-82
2023/11/09 12:09:15;;;;;;;0.82;0.50;;;17.10;70.80;;;;;;5057729;28;20040;-76
2023/11/09 12:11:50;;;;;;;0.52;0.40;;;17.10;70.70;;;;;;5059035;28;20044;-76
2023/11/09 12:14:18;;;;;;;0.88;0.40;;;17.10;70.80;;;;;;5056766;28;20135;-76
2023/11/09 12:16:44;;;;;;;0.50;0.40;;;17.10;70.70;;;;;;5056897;28;20759;-76
2023/11/09 12:19:14;;;;;;;1.15;0.85;;;17.10;70.60;;;;;;5059381;28;20092;-76
2023/11/09 12:21:40;;;;;;;0.43;0.43;;;17.10;70.40;;;;;;5058209;28;20331;-75
2023/11/09 12:24:12;;;;;;;0.30;0.30;;;17.20;70.30;;;;;;5054021;28;20045;-76
2023/11/09 12:26:39;;;;;;;0.50;0.38;;;17.20;70.40;;;;;;5054441;28;20043;-76
2023/11/09 12:29:05;;;;;;;0.40;0.30;;;17.20;70.20;;;;;;5058257;28;20059;-76
2023/11/09 12:31:31;;;;;;;0.45;0.40;;;17.20;70.20;;;;;;5059511;28;20068;-75
2023/11/09 12:34:04;;;;;;;1.13;0.45;;;17.20;70.60;;;;;;5091562;28;20124;-75
2023/11/09 12:36:30;;;;;;;0.82;0.30;;;17.20;70.30;;;;;;5061358;28;20040;-76
2023/11/09 12:38:56;;;;;;;0.60;0.40;;;17.20;70.50;;;;;;5056144;28;20498;-76
2023/11/09 12:41:25;;;;;;;0.50;0.40;;;17.20;70.20;;;;;;5057956;28;20052;-76
2023/11/09 12:43:50;;;;;;;0.45;0.40;;;17.20;70.30;;;;;;5091019;28;20415;-75
2023/11/09 12:46:19;;;;;;;0.47;0.40;;;17.20;70.60;;;;;;5058496;28;20494;-76
2023/11/09 12:48:47;;;;;;;0.40;0.40;;;17.20;70.70;;;;;;5042031;28;20946;-76
2023/11/09 12:51:23;;;;;;;0.47;0.47;;;17.20;70.40;;;;;;5057716;28;20052;-75
2023/11/09 12:53:52;;;;;;;0.70;0.40;;;17.20;70.30;;;;;;5057275;28;20461;-76